Time;durP1;ratioP1;P1;durP2;ratioP2;P2;SDS_P1;SDS_P2;PMS_P1;PMS_P2;Temp;Humidity;BMP_temperature;BMP_pressure;BME280_temperature;BME280_humidity;BME280_pressure;Samples;Min_cycle;Max_cycle;Signal;HPM_P1;HPM_P2
2022/04/15 00:06:24;739457.00;2.46;1275.73;83622.00;0.28;145.29;;;;;18.00;1.00;;;;;;1564717;56;3670;-88
2022/04/15 00:08:52;110274.00;0.37;191.30;0.00;0.00;0.62;;;;;17.90;1.00;;;;;;2273146;61;1766;-89
2022/04/15 01:01:10;220897.00;0.74;381.89;0.00;0.00;0.62;;;;;17.60;1.00;;;;;;2395938;40;3470;-88
2022/04/15 01:33:35;526840.00;1.76;908.05;69937.00;0.23;121.65;;;;;16.70;1.00;;;;;;1428467;55;3562;-87
2022/04/15 02:05:59;311988.00;1.04;538.53;0.00;0.00;0.62;;;;;17.20;1.00;;;;;;2266672;61;991;-90
2022/04/15 02:08:26;827532.00;2.76;1429.18;35139.00;0.12;61.48;;;;;17.50;1.00;;;;;;2326533;40;3570;-89
2022/04/15 02:48:10;352135.00;1.17;607.53;63334.00;0.21;110.24;;;;;16.40;1.00;;;;;;2070847;40;3374;-89
2022/04/15 03:18:03;954756.00;3.18;1652.50;2467.00;0.01;4.90;;;;;16.70;1.00;;;;;;2270283;61;1308;-89
2022/04/15 03:32:56;589866.00;1.97;1016.73;45169.00;0.15;78.83;;;;;16.40;1.00;;;;;;2357252;41;3477;-87
2022/04/15 03:37:57;803603.00;2.68;1387.41;154120.00;0.51;266.91;;;;;16.30;1.00;;;;;;2045636;40;3444;-88
2022/04/15 04:30:21;475108.00;1.58;818.98;0.00;0.00;0.62;;;;;16.40;1.00;;;;;;2270473;61;1875;-88
2022/04/15 04:47:47;409057.00;1.36;705.38;16659.00;0.06;29.48;;;;;16.80;1.00;;;;;;1973049;56;3615;-89
2022/04/15 05:32:44;1137096.00;3.79;1976.89;53457.00;0.18;93.16;;;;;17.30;1.00;;;;;;2270614;61;1082;-89
2022/04/15 05:37:43;177025.00;0.59;306.37;0.00;0.00;0.62;;;;;17.90;1.00;;;;;;2266897;61;1303;-90
2022/04/15 05:40:11;887487.00;2.96;1534.15;20456.00;0.07;36.06;;;;;17.80;1.00;;;;;;2264597;61;950;-89
2022/04/15 06:52:30;1472868.00;4.91;2592.17;139364.00;0.46;241.47;;;;;22.00;1.00;;;;;;2266736;61;1957;-89
2022/04/15 07:04:54;1686994.00;5.62;3000.18;165448.00;0.55;286.43;;;;;24.70;1.00;;;;;;1993928;40;3450;-88
2022/04/15 07:12:21;1776720.00;5.92;3175.48;122830.00;0.41;212.96;;;;;26.30;1.00;;;;;;2281386;56;4036;-89
2022/04/15 08:27:19;613020.00;2.04;1056.71;0.00;0.00;0.62;;;;;27.90;1.00;;;;;;1570594;40;3444;-89
2022/04/15 08:47:34;293871.00;0.98;507.38;0.00;0.00;0.62;;;;;26.10;1.00;;;;;;2306285;40;3658;-89
2022/04/15 08:50:05;643455.00;2.14;1109.31;38043.00;0.13;66.50;;;;;26.20;1.00;;;;;;2270979;61;1506;-89
2022/04/15 09:15:11;477205.00;1.59;822.59;0.00;0.00;0.62;;;;;24.40;1.00;;;;;;2361033;40;3686;-88
2022/04/15 09:53:10;1945678.00;6.49;3513.37;89406.00;0.30;155.28;;;;;25.50;1.00;;;;;;2501840;55;3560;31
2022/04/15 10:00:42;324704.00;1.08;560.38;0.00;0.00;0.62;;;;;25.20;1.00;;;;;;2058380;55;3599;-89
2022/04/15 10:03:11;319734.00;1.07;551.84;0.00;0.00;0.62;;;;;25.20;1.00;;;;;;2272796;61;961;-88
2022/04/15 11:15:18;1817889.00;6.06;3256.85;0.00;0.00;0.62;;;;;23.90;1.00;;;;;;2270194;61;967;-89
2022/04/15 11:57:44;1014258.00;3.38;1757.74;75836.00;0.25;131.84;;;;;23.80;1.00;;;;;;2270782;61;1354;-89
2022/04/15 12:10:07;387604.00;1.29;668.50;75609.00;0.25;131.45;;;;;22.00;1.00;;;;;;2261686;61;1366;-85
2022/04/15 12:12:33;200961.00;0.67;347.58;77258.00;0.26;134.30;;;;;21.60;1.00;;;;;;2260393;61;2004;-87
2022/04/15 12:15:02;317378.00;1.06;547.79;77852.00;0.26;135.33;;;;;21.70;1.00;;;;;;2260394;61;1103;-84
2022/04/15 12:17:31;240661.00;0.80;415.89;74869.00;0.25;130.17;;;;;21.60;1.00;;;;;;2259962;61;1054;-86
2022/04/15 12:19:58;236543.00;0.79;408.80;66524.00;0.22;115.75;;;;;21.70;1.00;;;;;;2260443;61;1414;-85
2022/04/15 12:22:26;527056.00;1.76;908.42;155064.00;0.52;268.53;;;;;21.90;1.00;;;;;;2260195;61;1360;-84
2022/04/15 12:25:13;169340.00;0.56;293.13;69616.00;0.23;121.10;;;;;21.70;1.00;;;;;;2260239;61;1117;-87
2022/04/15 12:27:41;345567.00;1.15;596.24;82332.00;0.27;143.07;;;;;21.50;1.00;;;;;;2260304;61;1097;-84
2022/04/15 12:30:09;195345.00;0.65;337.91;85330.00;0.28;148.24;;;;;22.10;1.00;;;;;;2260181;61;1379;-84
2022/04/15 12:32:36;55010.00;0.18;95.85;0.00;0.00;0.62;;;;;22.50;1.00;;;;;;2260470;61;1915;-84
2022/04/15 12:35:12;43685.00;0.15;76.26;0.00;0.00;0.62;;;;;22.40;1.00;;;;;;2260040;61;1076;-83
2022/04/15 12:37:42;248519.00;0.83;429.40;26558.00;0.09;46.62;;;;;21.90;1.00;;;;;;2260365;61;1068;-85
2022/04/15 12:40:29;126115.00;0.42;218.63;0.00;0.00;0.62;;;;;22.20;1.00;;;;;;2260418;61;1185;-84
2022/04/15 12:42:56;84588.00;0.28;146.96;0.00;0.00;0.62;;;;;22.30;1.00;;;;;;2260429;61;1052;-84
2022/04/15 12:45:25;73226.00;0.24;127.33;0.00;0.00;0.62;;;;;22.40;1.00;;;;;;2260232;61;1487;-84
2022/04/15 12:47:59;139979.00;0.47;242.53;0.00;0.00;0.62;;;;;22.90;1.00;;;;;;2260404;61;1407;-86
2022/04/15 12:50:31;0.00;0.00;0.62;0.00;0.00;0.62;;;;;23.30;1.00;;;;;;2260516;61;1066;-86
2022/04/15 12:52:58;25587.00;0.09;44.94;0.00;0.00;0.62;;;;;23.40;1.00;;;;;;2260401;61;1991;-89
2022/04/15 12:55:28;0.00;0.00;0.62;0.00;0.00;0.62;;;;;22.90;1.00;;;;;;2260438;61;1212;-87
2022/04/15 12:57:55;159827.00;0.53;276.74;0.00;0.00;0.62;;;;;22.70;1.00;;;;;;2260359;61;1464;-87
2022/04/15 13:00:23;69503.00;0.23;120.90;0.00;0.00;0.62;;;;;22.80;1.00;;;;;;2259895;61;1112;-84
2022/04/15 13:02:51;137343.00;0.46;237.99;0.00;0.00;0.62;;;;;22.80;1.00;;;;;;2260090;61;1810;-86
2022/04/15 13:05:18;229976.00;0.77;397.51;0.00;0.00;0.62;;;;;23.00;1.00;;;;;;2259892;61;1577;-84
2022/04/15 13:07:48;138498.00;0.46;239.98;0.00;0.00;0.62;;;;;23.10;1.00;;;;;;2260130;61;1278;-86
2022/04/15 13:10:16;0.00;0.00;0.62;0.00;0.00;0.62;;;;;23.50;1.00;;;;;;2260018;61;1626;-85
2022/04/15 13:12:43;192021.00;0.64;332.19;0.00;0.00;0.62;;;;;23.20;1.00;;;;;;2260146;61;1940;-87
2022/04/15 13:15:11;159906.00;0.53;276.88;0.00;0.00;0.62;;;;;22.60;1.00;;;;;;2260297;61;1183;-85
2022/04/15 13:17:41;196344.00;0.65;339.63;48867.00;0.16;85.23;;;;;22.70;1.00;;;;;;2260178;61;1573;-87
2022/04/15 13:20:13;428579.00;1.43;738.94;82710.00;0.28;143.72;;;;;22.50;1.00;;;;;;2260256;61;1562;-85
2022/04/15 13:22:46;153106.00;0.51;265.16;0.00;0.00;0.62;;;;;22.40;1.00;;;;;;2259940;61;1599;-86
2022/04/15 13:25:18;193814.00;0.65;335.27;0.00;0.00;0.62;;;;;22.30;1.00;;;;;;2260182;61;1468;-86
2022/04/15 13:27:45;0.00;0.00;0.62;0.00;0.00;0.62;;;;;22.30;1.00;;;;;;2260072;61;1494;-87
2022/04/15 13:30:20;195787.00;0.65;338.67;0.00;0.00;0.62;;;;;21.90;1.00;;;;;;2259723;61;1113;-85
2022/04/15 13:32:50;166377.00;0.55;288.03;0.00;0.00;0.62;;;;;21.90;1.00;;;;;;2259985;61;1926;-86
2022/04/15 13:37:52;913847.00;3.05;1580.45;29635.00;0.10;51.95;;;;;22.00;1.00;;;;;;2265837;61;1413;-86
2022/04/15 13:40:30;236747.00;0.79;409.16;58928.00;0.20;102.62;;;;;22.10;1.00;;;;;;2264265;61;1806;-86
2022/04/15 13:42:57;204049.00;0.68;352.89;0.00;0.00;0.62;;;;;22.20;1.00;;;;;;2263977;61;1737;-86
2022/04/15 13:50:22;826962.00;2.76;1428.19;0.00;0.00;0.62;;;;;22.40;1.00;;;;;;2273555;61;1404;-86
2022/04/15 13:58:20;31613.00;0.11;55.37;0.00;0.00;0.62;;;;;23.70;1.00;;;;;;2272017;61;1345;-85
2022/04/15 15:35:54;955764.00;3.19;1654.28;65051.00;0.22;113.21;;;;;20.30;1.00;;;;;;2266309;61;1449;-88
2022/04/15 15:38:24;792211.00;2.64;1367.54;76194.00;0.25;132.46;;;;;20.60;1.00;;;;;;2264696;61;1760;-87
2022/04/15 15:40:52;1294340.00;4.31;2261.75;188166.00;0.63;325.55;;;;;20.70;1.00;;;;;;2264644;61;1008;-85
2022/04/15 15:43:20;1373014.00;4.58;2406.37;276918.00;0.92;478.24;;;;;20.90;1.00;;;;;;2264758;61;1084;-87
2022/04/15 15:45:47;1123580.00;3.75;1952.64;165244.00;0.55;286.07;;;;;20.80;1.00;;;;;;2264777;61;943;-87
2022/04/15 15:48:14;1027451.00;3.42;1781.15;126244.00;0.42;218.85;;;;;20.70;1.00;;;;;;2264675;61;1286;-87
2022/04/15 15:50:43;208664.00;0.70;360.84;62050.00;0.21;108.02;;;;;20.60;1.00;;;;;;2264668;61;1639;-88
2022/04/15 15:53:12;327862.00;1.09;565.81;73597.00;0.25;127.98;;;;;20.90;1.00;;;;;;2264590;61;2010;-88
2022/04/15 15:55:39;586785.00;1.96;1011.41;103446.00;0.34;179.52;;;;;21.10;1.00;;;;;;2264671;61;948;-87
2022/04/15 15:58:07;875404.00;2.92;1512.96;117178.00;0.39;203.21;;;;;21.40;1.00;;;;;;2264383;61;2073;-87
2022/04/15 16:00:34;759450.00;2.53;1310.49;112926.00;0.38;195.88;;;;;21.50;1.00;;;;;;2264642;61;2268;-85
2022/04/15 16:03:02;667311.00;2.22;1150.60;104931.00;0.35;182.08;;;;;21.40;1.00;;;;;;2264756;61;1028;-87
2022/04/15 16:05:30;696055.00;2.32;1200.40;111328.00;0.37;193.12;;;;;21.40;1.00;;;;;;2264680;61;1026;-89
2022/04/15 16:07:58;666284.00;2.22;1148.82;105435.00;0.35;182.95;;;;;21.60;1.00;;;;;;2264421;61;1396;-87
2022/04/15 16:10:27;728672.00;2.43;1257.00;111497.00;0.37;193.41;;;;;21.60;1.00;;;;;;2264629;61;1243;-88
2022/04/15 16:12:54;119400696.00;398.00;68955504.00;108070.00;0.36;187.50;;;;;21.50;1.00;;;;;;2264562;61;1923;-89
2022/04/15 16:15:21;674959.00;2.25;1163.84;151668.00;0.51;262.68;;;;;21.20;1.00;;;;;;2264684;61;1058;-87
2022/04/15 16:17:47;117360824.00;391.20;65478340.00;88301.00;0.29;153.37;;;;;20.90;1.00;;;;;;2264494;61;1345;-88
2022/04/15 16:20:14;313289.00;1.04;540.76;75734.00;0.25;131.67;;;;;20.70;1.00;;;;;;2264588;61;1743;-86
2022/04/15 16:22:41;396677.00;1.32;684.09;88026.00;0.29;152.90;;;;;20.80;1.00;;;;;;2264611;61;1068;-86
2022/04/15 16:25:09;427467.00;1.42;737.03;178167.00;0.59;308.33;;;;;20.80;1.00;;;;;;2264538;61;1093;-88
2022/04/15 16:27:39;171346.00;0.57;296.59;80179.00;0.27;139.35;;;;;21.10;1.00;;;;;;2264521;61;1169;-87
2022/04/15 16:30:07;184566.00;0.62;319.35;82718.00;0.28;143.73;;;;;21.00;1.00;;;;;;2264623;61;1164;-87
2022/04/15 16:32:34;244601.00;0.82;422.67;76781.00;0.26;133.48;;;;;21.00;1.00;;;;;;2264537;61;1916;-86
2022/04/15 16:35:02;275165.00;0.92;475.22;101509.00;0.34;176.18;;;;;20.70;1.00;;;;;;2264570;61;1031;-87
2022/04/15 16:37:29;221963.00;0.74;383.72;73873.00;0.25;128.45;;;;;20.60;1.00;;;;;;2264615;61;985;-87
2022/04/15 16:39:56;402397.00;1.34;693.93;115548.00;0.39;200.40;;;;;20.60;1.00;;;;;;2264446;61;1654;-88
2022/04/15 16:42:23;464726.00;1.55;801.12;86555.00;0.29;150.36;;;;;20.70;1.00;;;;;;2264514;61;1213;-87
2022/04/15 16:44:52;231096.00;0.77;399.43;69176.00;0.23;120.34;;;;;20.60;1.00;;;;;;2264570;61;917;-86
2022/04/15 16:47:19;169592.00;0.57;293.56;78834.00;0.26;137.02;;;;;20.40;1.00;;;;;;2264550;61;1091;-86
2022/04/15 16:49:45;284404.00;0.95;491.11;74563.00;0.25;129.64;;;;;20.60;1.00;;;;;;2264508;61;1546;-86
2022/04/15 16:52:12;303108.00;1.01;523.26;80535.00;0.27;139.96;;;;;20.60;1.00;;;;;;2264490;61;1911;-86
2022/04/15 17:00:10;251213.00;0.84;434.04;66639.00;0.22;115.95;;;;;20.60;1.00;;;;;;2264495;61;1351;-87
2022/04/15 17:02:38;262917.00;0.88;454.16;76228.00;0.25;132.52;;;;;20.50;1.00;;;;;;2264476;61;1602;-87
2022/04/15 17:05:06;173951.00;0.58;301.07;76775.00;0.26;133.47;;;;;20.60;1.00;;;;;;2264457;61;937;-86
2022/04/15 17:07:33;167089.00;0.56;289.25;75543.00;0.25;131.34;;;;;20.40;1.00;;;;;;2264486;61;1114;-86
2022/04/15 17:10:00;424737.00;1.42;732.34;79316.00;0.26;137.86;;;;;20.20;1.00;;;;;;2264461;61;1445;-88
2022/04/15 17:12:27;229560.00;0.77;396.79;76550.00;0.26;133.08;;;;;20.40;1.00;;;;;;2264422;61;2012;-88
2022/04/15 17:14:54;268531.00;0.90;463.82;87477.00;0.29;151.95;;;;;20.20;1.00;;;;;;2264481;61;1118;-87
2022/04/15 17:17:22;8970.00;0.03;16.16;0.00;0.00;0.62;;;;;20.30;1.00;;;;;;2264568;61;1083;-87
2022/04/15 17:19:49;128997.00;0.43;223.60;0.00;0.00;0.62;;;;;20.30;1.00;;;;;;2264402;61;1414;-86
2022/04/15 17:22:16;0.00;0.00;0.62;0.00;0.00;0.62;;;;;19.80;1.00;;;;;;2264364;61;1035;-87
2022/04/15 17:24:43;0.00;0.00;0.62;0.00;0.00;0.62;;;;;19.80;1.00;;;;;;2264427;61;1014;-88
2022/04/15 17:29:39;122728.00;0.41;212.79;0.00;0.00;0.62;;;;;19.90;1.00;;;;;;2270177;61;1415;-88
2022/04/15 17:32:07;0.00;0.00;0.62;0.00;0.00;0.62;;;;;20.30;1.00;;;;;;2268276;61;2014;-86
2022/04/15 17:34:35;137965.00;0.46;239.06;35880.00;0.12;62.76;;;;;20.30;1.00;;;;;;2268400;61;1051;-86
2022/04/15 17:37:04;0.00;0.00;0.62;0.00;0.00;0.62;;;;;20.10;1.00;;;;;;2268396;61;1075;-89
2022/04/15 17:39:31;39692.00;0.13;69.36;0.00;0.00;0.62;;;;;20.00;1.00;;;;;;2268347;61;1334;-87
2022/04/15 17:41:58;106520.00;0.36;184.82;22433.00;0.07;39.48;;;;;20.00;1.00;;;;;;2268352;61;1083;-87
2022/04/15 17:44:26;43513.00;0.15;75.97;0.00;0.00;0.62;;;;;19.80;1.00;;;;;;2268427;61;1554;-85
2022/04/15 17:46:53;27546.00;0.09;48.34;0.00;0.00;0.62;;;;;19.80;1.00;;;;;;2268361;61;1466;-86
2022/04/15 17:49:20;54006.00;0.18;94.11;0.00;0.00;0.62;;;;;19.70;1.00;;;;;;2268357;61;1388;-88
2022/04/15 17:51:48;0.00;0.00;0.62;0.00;0.00;0.62;;;;;19.60;1.00;;;;;;2268027;61;1019;-88
2022/04/15 17:54:18;0.00;0.00;0.62;0.00;0.00;0.62;;;;;19.40;1.00;;;;;;2268286;61;2021;-88
2022/04/15 17:56:45;0.00;0.00;0.62;0.00;0.00;0.62;;;;;19.30;1.00;;;;;;2268375;61;1011;-88
2022/04/15 17:59:12;0.00;0.00;0.62;0.00;0.00;0.62;;;;;19.20;1.00;;;;;;2268350;61;1379;-87
2022/04/15 18:01:39;93529.00;0.31;162.40;0.00;0.00;0.62;;;;;19.30;1.00;;;;;;2267738;61;1041;-85
2022/04/15 18:04:09;68810.00;0.23;119.70;0.00;0.00;0.62;;;;;19.20;1.00;;;;;;2268112;61;1116;-85
2022/04/15 18:06:37;32652.00;0.11;57.17;0.00;0.00;0.62;;;;;19.20;1.00;;;;;;2268204;61;1137;-86
2022/04/15 18:09:06;0.00;0.00;0.62;0.00;0.00;0.62;;;;;19.10;1.00;;;;;;2268149;61;1284;-85
2022/04/15 18:11:33;58715.00;0.20;102.26;0.00;0.00;0.62;;;;;19.20;1.00;;;;;;2267774;61;1566;-85
2022/04/15 18:16:29;169467.00;0.56;293.35;0.00;0.00;0.62;;;;;19.10;1.00;;;;;;2265670;61;1389;-85
2022/04/15 18:18:56;0.00;0.00;0.62;0.00;0.00;0.62;;;;;19.00;1.00;;;;;;2263807;61;1767;-85
2022/04/15 18:21:23;16353.00;0.05;28.95;0.00;0.00;0.62;;;;;19.00;1.00;;;;;;2263988;61;1147;-87
2022/04/15 18:23:49;82148.00;0.27;142.75;0.00;0.00;0.62;;;;;18.80;1.00;;;;;;2264032;61;1084;-86
2022/04/15 18:26:18;58247.00;0.19;101.45;0.00;0.00;0.62;;;;;18.60;1.00;;;;;;2263956;61;1458;-85
2022/04/15 18:28:45;0.00;0.00;0.62;0.00;0.00;0.62;;;;;18.70;1.00;;;;;;2277553;56;3780;-86
2022/04/15 18:31:13;208775.00;0.70;361.03;0.00;0.00;0.62;;;;;18.80;1.00;;;;;;2271625;61;1120;-84
2022/04/15 18:36:08;78296.00;0.26;136.09;0.00;0.00;0.62;;;;;18.70;1.00;;;;;;2269914;61;1301;-86
2022/04/15 18:38:35;102975.00;0.34;178.71;0.00;0.00;0.62;;;;;18.80;1.00;;;;;;2267826;61;1364;-85
2022/04/15 18:41:02;9187.00;0.03;16.54;0.00;0.00;0.62;;;;;18.90;1.00;;;;;;2281283;40;3615;-87
2022/04/15 18:43:31;132118.00;0.44;228.98;66022.00;0.22;114.89;;;;;18.80;1.00;;;;;;2272195;61;1726;-88
2022/04/15 18:45:59;0.00;0.00;0.62;0.00;0.00;0.62;;;;;18.80;1.00;;;;;;2272098;61;2173;-88
2022/04/15 18:53:55;92628.00;0.31;160.85;0.00;0.00;0.62;;;;;19.00;1.00;;;;;;2272288;61;1902;-89
2022/04/15 18:56:22;0.00;0.00;0.62;0.00;0.00;0.62;;;;;19.00;1.00;;;;;;2272227;61;1571;-86
2022/04/15 18:58:51;94777.00;0.32;164.56;5319.00;0.02;9.84;;;;;19.20;1.00;;;;;;2272216;61;1287;-88
2022/04/15 19:01:18;52351.00;0.17;91.25;0.00;0.00;0.62;;;;;19.30;1.00;;;;;;2272218;61;1416;-91
2022/04/15 19:03:45;11010.00;0.04;19.70;0.00;0.00;0.62;;;;;19.30;1.00;;;;;;2272855;61;1077;-88
2022/04/15 19:06:14;0.00;0.00;0.62;0.00;0.00;0.62;;;;;19.30;1.00;;;;;;2272869;61;968;-91
2022/04/15 19:08:43;25619.00;0.09;45.00;0.00;0.00;0.62;;;;;19.20;1.00;;;;;;2272999;61;1301;-89
2022/04/15 19:11:11;62304.00;0.21;108.46;0.00;0.00;0.62;;;;;19.20;1.00;;;;;;2272815;61;1057;-88
2022/04/15 19:13:38;21013.00;0.07;37.02;0.00;0.00;0.62;;;;;19.20;1.00;;;;;;2272859;61;2000;-90
2022/04/15 19:16:07;150125.00;0.50;260.02;0.00;0.00;0.62;;;;;19.10;1.00;;;;;;2272875;61;991;-89
2022/04/15 19:18:34;0.00;0.00;0.62;0.00;0.00;0.62;;;;;19.10;1.00;;;;;;2272739;61;1906;-89
2022/04/15 19:21:01;52899.00;0.18;92.20;0.00;0.00;0.62;;;;;19.10;1.00;;;;;;2272925;61;905;-87
2022/04/15 19:23:28;0.00;0.00;0.62;0.00;0.00;0.62;;;;;19.10;1.00;;;;;;2272829;61;1032;-88
2022/04/15 19:25:56;108401.00;0.36;188.07;0.00;0.00;0.62;;;;;19.00;1.00;;;;;;2272942;61;1026;-86
2022/04/15 19:28:23;0.00;0.00;0.62;0.00;0.00;0.62;;;;;19.00;1.00;;;;;;2272847;61;1385;-89
2022/04/15 19:30:50;140146.00;0.47;242.82;31994.00;0.11;56.03;;;;;19.00;1.00;;;;;;2272882;61;1062;-87
2022/04/15 19:33:22;0.00;0.00;0.62;0.00;0.00;0.62;;;;;18.90;1.00;;;;;;2272787;61;1915;-88
2022/04/15 19:35:49;36664.00;0.12;64.12;0.00;0.00;0.62;;;;;19.00;1.00;;;;;;2272794;61;1625;-87
2022/04/15 19:38:17;8276.00;0.03;14.96;0.00;0.00;0.62;;;;;18.90;1.00;;;;;;2272850;61;1354;-88
2022/04/15 19:40:44;15147.00;0.05;26.87;0.00;0.00;0.62;;;;;19.00;1.00;;;;;;2274955;40;3606;-88
2022/04/15 19:43:11;0.00;0.00;0.62;0.00;0.00;0.62;;;;;19.20;1.00;;;;;;2272819;61;1111;-87
2022/04/15 19:45:38;1700.00;0.01;3.57;0.00;0.00;0.62;;;;;19.10;1.00;;;;;;2272686;61;1113;-89
2022/04/15 19:50:35;169281.00;0.56;293.03;0.00;0.00;0.62;;;;;19.50;1.00;;;;;;2270187;61;1421;-89
2022/04/15 19:53:02;30470.00;0.10;53.40;0.00;0.00;0.62;;;;;19.60;1.00;;;;;;2268581;61;1923;-87
2022/04/15 19:55:29;38533.00;0.13;67.35;0.00;0.00;0.62;;;;;19.40;1.00;;;;;;2279438;56;3892;-87
2022/04/15 20:03:26;0.00;0.00;0.62;0.00;0.00;0.62;;;;;19.20;1.00;;;;;;2272734;61;686;-87
2022/04/15 20:05:55;0.00;0.00;0.62;0.00;0.00;0.62;;;;;19.00;1.00;;;;;;2272750;61;1005;-87
2022/04/15 20:08:22;0.00;0.00;0.62;0.00;0.00;0.62;;;;;18.90;1.00;;;;;;2272691;61;1267;-87
2022/04/15 20:21:23;637255.00;2.12;1098.59;0.00;0.00;0.62;;;;;19.10;1.00;;;;;;2501832;55;3514;31
2022/04/15 22:49:10;1462532.00;4.88;2572.81;155784.00;0.52;269.77;;;;;12.80;1.00;;;;;;2266286;61;1278;-89
2022/04/15 23:59:12;120357080.00;401.19;70627336.00;120752.00;0.40;209.38;;;;;12.00;1.00;;;;;;2267200;61;1285;-89
